createdAt,value
2019-05-18T00:01:53.435Z,94.17
2019-05-18T00:04:26.150Z,94.25
2019-05-18T00:06:59.333Z,94.07
2019-05-18T00:09:32.009Z,93.59
2019-05-18T00:12:04.850Z,93.35
2019-05-18T00:14:37.480Z,93.66
2019-05-18T00:17:24.404Z,93.69
2019-05-18T00:19:44.600Z,94.43
2019-05-18T00:22:17.370Z,94.67
2019-05-18T00:24:51.212Z,94.75
2019-05-18T00:27:23.850Z,94.80
2019-05-18T00:29:56.536Z,95.02
2019-05-18T00:32:29.331Z,94.72
2019-05-18T00:35:01.981Z,94.49
2019-05-18T00:37:34.970Z,94.78
2019-05-18T00:40:09.846Z,95.14
2019-05-18T00:42:42.430Z,94.79
2019-05-18T00:45:15.384Z,94.61
2019-05-18T00:47:48.115Z,94.61
2019-05-18T00:50:21.111Z,94.46
2019-05-18T00:52:53.832Z,94.41
2019-05-18T00:55:26.595Z,94.81
2019-05-18T00:57:59.500Z,95.19
2019-05-18T01:00:32.571Z,95.34
2019-05-18T01:03:05.476Z,95.30
2019-05-18T01:05:38.404Z,95.30
2019-05-18T01:08:11.426Z,95.34
2019-05-18T01:10:44.910Z,95.63
2019-05-18T01:13:17.546Z,95.74
2019-05-18T01:15:50.186Z,95.42
2019-05-18T01:18:23.060Z,94.93
2019-05-18T01:20:55.740Z,94.75
2019-05-18T01:23:28.690Z,95.00
2019-05-18T01:26:02.522Z,95.01
2019-05-18T01:28:35.056Z,95.12
2019-05-18T01:31:07.900Z,94.96
2019-05-18T01:33:40.650Z,94.86
2019-05-18T01:36:13.545Z,95.45
2019-05-18T01:38:46.246Z,95.40
2019-05-18T01:41:18.800Z,95.49
2019-05-18T01:43:51.470Z,95.42
2019-05-18T01:46:24.042Z,96.04
2019-05-18T01:48:56.910Z,96.75
2019-05-18T01:51:29.525Z,97.37
2019-05-18T01:54:02.512Z,97.26
2019-05-18T01:56:35.135Z,96.97
2019-05-18T01:59:07.880Z,97.11
2019-05-18T02:01:40.471Z,97.14
2019-05-18T02:04:14.095Z,97.01
2019-05-18T02:06:46.730Z,96.62
2019-05-18T02:09:19.747Z,96.35
2019-05-18T02:11:52.387Z,96.16
2019-05-18T02:14:25.065Z,95.81
2019-05-18T02:16:57.790Z,95.08
2019-05-18T02:19:30.530Z,95.35
2019-05-18T02:22:03.120Z,95.77
2019-05-18T02:24:36.021Z,96.06
2019-05-18T02:27:08.785Z,96.39
2019-05-18T02:29:41.670Z,96.32
2019-05-18T02:32:14.231Z,95.89
2019-05-18T02:34:47.093Z,95.35
2019-05-18T02:37:19.653Z,96.31
2019-05-18T02:39:53.907Z,96.53
2019-05-18T02:42:30.551Z,96.28
2019-05-18T02:45:01.035Z,96.17
2019-05-18T02:47:33.731Z,95.47
2019-05-18T02:50:08.879Z,95.21
2019-05-18T02:52:41.542Z,94.97
2019-05-18T02:55:15.450Z,94.70
2019-05-18T02:57:48.102Z,94.99
2019-05-18T03:00:20.962Z,95.58
2019-05-18T03:02:53.565Z,96.12
2019-05-18T03:05:26.536Z,96.31
2019-05-18T03:07:59.333Z,96.43
2019-05-18T03:10:32.591Z,96.55
2019-05-18T03:13:05.681Z,96.43
2019-05-18T03:15:39.296Z,96.72
2019-05-18T03:18:11.988Z,96.65
2019-05-18T03:20:44.862Z,96.54
2019-05-18T03:23:17.867Z,96.23
2019-05-18T03:25:51.010Z,96.00
2019-05-18T03:28:23.845Z,96.31
2019-05-18T03:30:56.572Z,96.23
2019-05-18T03:33:30.461Z,96.44
2019-05-18T03:36:03.583Z,96.83
2019-05-18T03:38:36.307Z,96.95
2019-05-18T03:41:09.071Z,97.06
2019-05-18T03:43:41.845Z,97.25
2019-05-18T03:46:14.871Z,97.11
2019-05-18T03:48:47.707Z,96.56
2019-05-18T03:51:20.282Z,95.91
2019-05-18T03:53:53.013Z,95.34
2019-05-18T03:56:25.627Z,94.78
2019-05-18T03:58:58.271Z,94.81
2019-05-18T04:01:31.183Z,95.24
2019-05-18T04:04:03.913Z,94.74
2019-05-18T04:06:36.920Z,94.34
2019-05-18T04:09:09.877Z,94.58
2019-05-18T04:11:42.442Z,93.95
2019-05-18T04:14:14.842Z,93.30
2019-05-18T04:16:47.632Z,92.49
2019-05-18T04:19:20.440Z,91.92
2019-05-18T04:21:53.330Z,91.79
2019-05-18T04:24:27.321Z,91.59
2019-05-18T04:27:00.265Z,90.25
2019-05-18T04:29:33.137Z,90.12
2019-05-18T04:32:05.782Z,88.92
2019-05-18T04:34:38.430Z,86.92
2019-05-18T04:37:11.381Z,85.52
2019-05-18T04:39:44.180Z,83.89
2019-05-18T04:42:17.137Z,81.62
2019-05-18T04:44:49.866Z,79.50
2019-05-18T04:47:22.727Z,77.19
2019-05-18T04:50:05.260Z,77.20
2019-05-18T04:52:30.179Z,75.18
2019-05-18T04:55:02.808Z,73.39
2019-05-18T04:57:35.592Z,71.58
2019-05-18T05:00:10.100Z,71.83
2019-05-18T05:02:42.788Z,70.44
2019-05-18T05:05:15.573Z,69.75
2019-05-18T05:07:48.301Z,71.44
2019-05-18T05:10:21.140Z,66.51
2019-05-18T05:12:53.770Z,68.54
2019-05-18T05:15:26.390Z,66.18
2019-05-18T05:17:59.141Z,60.67
2019-05-18T05:20:31.715Z,57.22
2019-05-18T05:23:04.352Z,59.70
2019-05-18T05:25:37.120Z,55.17
2019-05-18T05:28:09.770Z,52.29
2019-05-18T05:30:42.772Z,50.93
2019-05-18T05:33:15.283Z,54.17
2019-05-18T05:35:48.055Z,55.02
2019-05-18T05:38:20.926Z,57.26
2019-05-18T05:40:53.717Z,58.66
2019-05-18T05:43:27.145Z,58.91
2019-05-18T05:45:59.877Z,58.60
2019-05-18T05:48:32.320Z,57.76
2019-05-18T05:51:05.110Z,58.43
2019-05-18T05:53:37.566Z,58.71
2019-05-18T05:56:10.066Z,58.01
2019-05-18T05:58:42.486Z,59.76
2019-05-18T06:01:15.276Z,60.99
2019-05-18T06:03:48.882Z,60.43
2019-05-18T06:06:23.160Z,57.83
2019-05-18T06:08:56.104Z,56.23
2019-05-18T06:11:28.722Z,55.38
2019-05-18T06:14:01.391Z,55.56
2019-05-18T06:16:34.171Z,56.66
2019-05-18T06:19:07.015Z,56.05
2019-05-18T06:21:39.520Z,55.58
2019-05-18T06:24:12.311Z,57.33
2019-05-18T06:26:44.940Z,55.86
2019-05-18T06:29:17.730Z,55.79
2019-05-18T06:31:50.599Z,57.13
2019-05-18T06:34:23.436Z,55.08
2019-05-18T06:36:56.154Z,55.25
2019-05-18T06:39:28.917Z,55.56
2019-05-18T06:42:01.683Z,56.63
2019-05-18T06:44:34.728Z,53.75
2019-05-18T06:47:07.575Z,54.44
2019-05-18T06:49:40.492Z,54.37
2019-05-18T06:52:13.305Z,56.04
2019-05-18T06:54:45.895Z,55.19
2019-05-18T06:57:19.085Z,54.08
2019-05-18T06:59:51.942Z,55.67
2019-05-18T07:02:24.650Z,56.58
2019-05-18T07:04:57.430Z,57.03
2019-05-18T07:07:30.131Z,56.83
2019-05-18T07:10:02.869Z,57.90
2019-05-18T07:12:35.817Z,57.87
2019-05-18T07:15:10.520Z,57.67
2019-05-18T07:17:43.000Z,57.58
2019-05-18T07:20:17.416Z,57.22
2019-05-18T07:22:49.910Z,58.57
2019-05-18T07:25:23.732Z,58.73
2019-05-18T07:27:56.415Z,58.48
2019-05-18T07:30:29.284Z,57.92
2019-05-18T07:33:02.051Z,57.76
2019-05-18T07:35:35.093Z,56.53
2019-05-18T07:38:07.540Z,54.66
2019-05-18T07:40:40.230Z,53.74
2019-05-18T07:43:12.720Z,52.67
2019-05-18T07:45:45.740Z,53.53
2019-05-18T07:48:18.506Z,54.58
2019-05-18T07:50:51.190Z,56.17
2019-05-18T07:53:23.867Z,54.84
2019-05-18T07:55:56.747Z,55.57
2019-05-18T07:58:29.736Z,56.28
2019-05-18T08:01:02.512Z,55.00
2019-05-18T08:03:35.205Z,53.72
2019-05-18T08:06:07.967Z,53.76
2019-05-18T08:08:41.805Z,51.94
2019-05-18T08:11:14.740Z,51.50
2019-05-18T08:13:47.565Z,52.41
2019-05-18T08:16:20.322Z,52.51
2019-05-18T08:18:52.952Z,51.47
2019-05-18T08:21:25.557Z,50.82
2019-05-18T08:23:58.558Z,50.45
2019-05-18T08:26:31.776Z,50.66
2019-05-18T08:29:04.566Z,49.86
2019-05-18T08:31:37.383Z,51.50
2019-05-18T08:34:10.005Z,48.72
2019-05-18T08:36:42.980Z,48.14
2019-05-18T08:39:15.876Z,46.90
2019-05-18T08:41:48.997Z,46.91
2019-05-18T08:44:22.245Z,47.10
2019-05-18T08:46:54.820Z,46.77
2019-05-18T08:49:27.345Z,46.21
2019-05-18T08:52:08.480Z,47.73
2019-05-18T08:54:34.785Z,45.15
2019-05-18T08:57:07.665Z,45.41
2019-05-18T08:59:40.671Z,45.87
2019-05-18T09:02:13.842Z,46.70
2019-05-18T09:04:46.406Z,47.40
2019-05-18T09:07:19.071Z,48.45
2019-05-18T09:09:52.038Z,45.52
2019-05-18T09:12:24.680Z,48.80
2019-05-18T09:14:57.286Z,45.30
2019-05-18T09:17:30.236Z,44.20
2019-05-18T09:20:03.385Z,44.36
2019-05-18T09:22:37.542Z,45.46
2019-05-18T09:25:10.846Z,44.74
2019-05-18T09:27:43.691Z,47.68
2019-05-18T09:30:16.927Z,46.08
2019-05-18T09:32:49.610Z,44.81
2019-05-18T09:35:22.831Z,45.35
2019-05-18T09:37:56.392Z,46.24
2019-05-18T09:40:29.131Z,45.06
2019-05-18T09:43:01.797Z,43.83
2019-05-18T09:45:34.622Z,43.77
2019-05-18T09:48:07.460Z,44.84
2019-05-18T09:50:40.135Z,44.10
2019-05-18T09:53:13.192Z,42.86
2019-05-18T09:55:46.095Z,43.50
2019-05-18T09:58:18.891Z,42.24
2019-05-18T10:00:51.858Z,42.77
2019-05-18T10:03:24.732Z,40.25
2019-05-18T10:05:57.455Z,40.52
2019-05-18T10:08:30.117Z,41.24
2019-05-18T10:11:03.105Z,42.39
2019-05-18T10:13:35.754Z,39.43
2019-05-18T10:16:08.727Z,39.21
2019-05-18T10:18:41.329Z,39.38
2019-05-18T10:21:14.352Z,39.77
2019-05-18T10:23:47.090Z,39.46
2019-05-18T10:26:19.959Z,39.49
2019-05-18T10:28:52.630Z,37.30
2019-05-18T10:31:25.386Z,37.45
2019-05-18T10:33:58.066Z,37.87
2019-05-18T10:36:30.824Z,38.81
2019-05-18T10:39:04.201Z,38.39
2019-05-18T10:41:37.025Z,39.09
2019-05-18T10:44:09.900Z,38.64
2019-05-18T10:46:43.091Z,39.77
2019-05-18T10:49:15.895Z,40.95
2019-05-18T10:51:48.610Z,43.03
2019-05-18T10:54:21.106Z,41.47
2019-05-18T10:56:54.010Z,43.10
2019-05-18T10:59:26.775Z,43.94
2019-05-18T11:01:59.630Z,43.91
2019-05-18T11:04:32.516Z,44.58
2019-05-18T11:07:05.500Z,45.59
2019-05-18T11:09:38.705Z,44.36
2019-05-18T11:12:11.630Z,42.96
2019-05-18T11:14:44.417Z,42.55
2019-05-18T11:17:17.257Z,43.46
2019-05-18T11:19:50.166Z,42.99
2019-05-18T11:22:23.113Z,43.00
2019-05-18T11:24:55.945Z,43.15
2019-05-18T11:27:28.690Z,42.81
2019-05-18T11:30:01.474Z,43.10
2019-05-18T11:32:34.340Z,41.74
2019-05-18T11:35:08.942Z,40.74
2019-05-18T11:37:41.545Z,39.32
2019-05-18T11:40:14.783Z,40.02
2019-05-18T11:42:47.669Z,38.51
2019-05-18T11:45:20.813Z,37.65
2019-05-18T11:47:53.856Z,38.66
2019-05-18T11:50:26.927Z,39.29
2019-05-18T11:53:00.290Z,39.33
2019-05-18T11:55:33.442Z,39.41
2019-05-18T11:58:06.395Z,39.04
2019-05-18T12:00:39.016Z,38.74
2019-05-18T12:03:11.877Z,37.93
2019-05-18T12:05:44.952Z,37.51
2019-05-18T12:08:17.953Z,36.63
2019-05-18T12:10:52.218Z,36.73
2019-05-18T12:13:25.210Z,36.66
2019-05-18T12:15:58.086Z,37.24
2019-05-18T12:18:30.859Z,35.69
2019-05-18T12:21:03.745Z,36.07
2019-05-18T12:23:36.773Z,36.24
2019-05-18T12:26:09.535Z,36.00
2019-05-18T12:28:42.306Z,35.92
2019-05-18T12:31:15.316Z,36.50
2019-05-18T12:33:49.346Z,35.94
2019-05-18T12:36:22.011Z,35.72
2019-05-18T12:38:54.875Z,36.06
2019-05-18T12:41:30.856Z,34.89
2019-05-18T12:44:03.871Z,33.70
2019-05-18T12:46:36.727Z,33.23
2019-05-18T12:49:09.590Z,34.40
2019-05-18T12:51:42.000Z,32.43
2019-05-18T12:54:28.781Z,32.39
2019-05-18T12:56:49.962Z,32.02
2019-05-18T12:59:22.746Z,33.84
2019-05-18T13:01:56.685Z,32.74
2019-05-18T13:04:29.635Z,35.23
2019-05-18T13:07:02.985Z,33.90
2019-05-18T13:09:35.587Z,33.81
2019-05-18T13:12:11.687Z,33.65
2019-05-18T13:14:43.091Z,33.41
2019-05-18T13:17:16.005Z,33.61
2019-05-18T13:19:48.867Z,34.50
2019-05-18T13:22:21.732Z,33.94
2019-05-18T13:24:55.077Z,33.85
2019-05-18T13:27:38.802Z,34.19
2019-05-18T13:30:02.708Z,33.64
2019-05-18T13:32:35.872Z,33.68
2019-05-18T13:35:10.341Z,32.88
2019-05-18T13:37:43.325Z,33.30
2019-05-18T13:40:19.468Z,33.77
2019-05-18T13:42:52.340Z,35.16
2019-05-18T13:45:25.254Z,34.13
2019-05-18T13:47:58.040Z,33.37
2019-05-18T13:50:30.975Z,32.98
2019-05-18T13:53:03.711Z,34.37
2019-05-18T13:55:36.661Z,33.08
2019-05-18T13:58:09.415Z,31.70
2019-05-18T14:00:42.490Z,31.53
2019-05-18T14:03:15.338Z,30.93
2019-05-18T14:05:47.990Z,32.33
2019-05-18T14:08:20.665Z,32.32
2019-05-18T14:10:53.645Z,33.05
2019-05-18T14:13:26.440Z,32.95
2019-05-18T14:15:59.410Z,32.49
2019-05-18T14:18:32.341Z,32.21
2019-05-18T14:21:05.146Z,32.57
2019-05-18T14:23:37.550Z,33.46
2019-05-18T14:26:10.345Z,34.22
2019-05-18T14:28:43.112Z,32.59
2019-05-18T14:31:15.925Z,33.41
2019-05-18T14:33:48.510Z,33.65
2019-05-18T14:36:21.442Z,34.77
2019-05-18T14:38:56.853Z,33.42
2019-05-18T14:41:28.653Z,33.51
2019-05-18T14:44:01.361Z,32.14
2019-05-18T14:46:34.560Z,33.53
2019-05-18T14:49:09.060Z,33.09
2019-05-18T14:51:41.866Z,34.12
2019-05-18T14:54:14.622Z,34.64
2019-05-18T14:56:48.426Z,32.64
2019-05-18T14:59:21.615Z,33.98
2019-05-18T15:01:55.387Z,32.94
2019-05-18T15:04:28.311Z,32.82
2019-05-18T15:07:01.266Z,34.86
2019-05-18T15:09:34.101Z,34.27
2019-05-18T15:12:06.871Z,32.78
2019-05-18T15:14:39.671Z,33.30
2019-05-18T15:17:12.378Z,32.78
2019-05-18T15:19:45.189Z,33.59
2019-05-18T15:22:17.966Z,33.99
2019-05-18T15:24:50.995Z,33.41
2019-05-18T15:27:23.757Z,33.99
2019-05-18T15:29:56.585Z,34.10
2019-05-18T15:32:29.345Z,33.68
2019-05-18T15:35:01.948Z,33.62
2019-05-18T15:37:34.640Z,33.31
2019-05-18T15:40:08.905Z,34.08
2019-05-18T15:42:41.650Z,32.92
2019-05-18T15:45:14.419Z,33.60
2019-05-18T15:47:47.160Z,34.62
2019-05-18T15:50:20.366Z,33.41
2019-05-18T15:52:53.245Z,33.99
2019-05-18T15:55:25.875Z,34.37
2019-05-18T15:57:59.167Z,34.23
2019-05-18T16:00:32.050Z,33.78
2019-05-18T16:03:04.750Z,34.38
2019-05-18T16:05:37.620Z,34.60
2019-05-18T16:08:10.392Z,34.43
2019-05-18T16:10:43.399Z,34.74
2019-05-18T16:13:16.160Z,34.88
2019-05-18T16:15:48.855Z,35.27
2019-05-18T16:18:21.605Z,36.25
2019-05-18T16:20:54.541Z,35.01
2019-05-18T16:23:27.235Z,35.30
2019-05-18T16:26:00.165Z,34.60
2019-05-18T16:28:33.775Z,34.53
2019-05-18T16:31:06.756Z,34.41
2019-05-18T16:33:39.415Z,35.61
2019-05-18T16:36:12.097Z,35.28
2019-05-18T16:38:44.780Z,35.18
2019-05-18T16:41:17.590Z,34.87
2019-05-18T16:43:51.008Z,35.70
2019-05-18T16:46:24.171Z,35.01
2019-05-18T16:48:56.776Z,35.08
2019-05-18T16:51:29.405Z,34.82
2019-05-18T16:54:02.361Z,34.83
2019-05-18T16:56:35.543Z,34.68
2019-05-18T16:59:08.380Z,35.03
2019-05-18T17:01:41.066Z,36.61
2019-05-18T17:04:13.685Z,35.74
2019-05-18T17:06:46.088Z,35.76
2019-05-18T17:09:18.761Z,36.45
2019-05-18T17:11:51.470Z,37.31
2019-05-18T17:14:24.120Z,37.67
2019-05-18T17:16:56.996Z,38.18
2019-05-18T17:19:29.757Z,38.50
2019-05-18T17:22:02.573Z,38.61
2019-05-18T17:24:36.546Z,37.47
2019-05-18T17:27:09.223Z,38.54
2019-05-18T17:29:42.105Z,38.57
2019-05-18T17:32:14.681Z,39.12
2019-05-18T17:34:47.265Z,39.29
2019-05-18T17:37:20.000Z,39.23
2019-05-18T17:39:52.690Z,39.31
2019-05-18T17:42:25.586Z,39.12
2019-05-18T17:44:58.310Z,39.02
2019-05-18T17:47:32.076Z,39.72
2019-05-18T17:50:07.027Z,39.82
2019-05-18T17:52:39.987Z,40.00
2019-05-18T17:55:16.380Z,40.49
2019-05-18T17:57:47.594Z,40.77
2019-05-18T18:00:21.080Z,41.08
2019-05-18T18:02:54.265Z,41.14
2019-05-18T18:05:27.240Z,41.56
2019-05-18T18:07:59.930Z,42.25
2019-05-18T18:10:32.840Z,42.22
2019-05-18T18:13:05.616Z,42.76
2019-05-18T18:15:39.155Z,43.45
2019-05-18T18:18:11.847Z,43.13
2019-05-18T18:20:44.726Z,43.60
2019-05-18T18:23:17.765Z,43.75
2019-05-18T18:25:51.471Z,43.97
2019-05-18T18:28:24.160Z,45.23
2019-05-18T18:30:57.041Z,49.05
2019-05-18T18:33:29.941Z,50.56
2019-05-18T18:36:02.630Z,49.96
2019-05-18T18:38:35.495Z,51.45
2019-05-18T18:41:08.326Z,50.94
2019-05-18T18:43:40.850Z,52.30
2019-05-18T18:46:13.343Z,53.57
2019-05-18T18:48:46.226Z,54.45
2019-05-18T18:51:19.036Z,54.98
2019-05-18T18:53:51.685Z,56.16
2019-05-18T18:56:24.376Z,55.34
2019-05-18T18:58:58.037Z,55.53
2019-05-18T19:01:31.093Z,56.38
2019-05-18T19:04:04.150Z,57.06
2019-05-18T19:06:36.924Z,58.15
2019-05-18T19:09:09.576Z,59.51
2019-05-18T19:11:42.216Z,59.10
2019-05-18T19:14:15.157Z,59.22
2019-05-18T19:16:48.157Z,60.17
2019-05-18T19:19:21.190Z,60.84
2019-05-18T19:21:54.113Z,61.15
2019-05-18T19:24:27.170Z,62.15
2019-05-18T19:27:00.065Z,62.70
2019-05-18T19:29:32.681Z,62.90
2019-05-18T19:32:05.527Z,63.42
2019-05-18T19:34:38.375Z,66.26
2019-05-18T19:37:11.316Z,66.02
2019-05-18T19:39:44.239Z,66.46
2019-05-18T19:42:18.097Z,67.16
2019-05-18T19:44:51.151Z,66.90
2019-05-18T19:47:24.197Z,68.37
2019-05-18T19:49:56.945Z,68.37
2019-05-18T19:52:30.000Z,68.68
2019-05-18T19:55:04.627Z,68.97
2019-05-18T19:57:37.515Z,69.74
2019-05-18T20:00:11.155Z,70.59
2019-05-18T20:02:44.680Z,70.91
2019-05-18T20:05:17.590Z,70.97
2019-05-18T20:07:50.295Z,71.24
2019-05-18T20:10:23.311Z,71.19
2019-05-18T20:12:56.331Z,71.09
2019-05-18T20:15:29.170Z,71.53
2019-05-18T20:18:02.049Z,72.49
2019-05-18T20:20:35.286Z,72.83
2019-05-18T20:23:08.793Z,72.70
2019-05-18T20:25:41.396Z,73.35
2019-05-18T20:28:23.334Z,73.33
2019-05-18T20:30:48.877Z,74.01
2019-05-18T20:33:21.891Z,74.04
2019-05-18T20:35:55.219Z,74.42
2019-05-18T20:38:27.965Z,74.94
2019-05-18T20:41:01.221Z,75.17
2019-05-18T20:43:33.980Z,75.11
2019-05-18T20:46:07.117Z,75.28
2019-05-18T20:48:39.790Z,75.83
2019-05-18T20:51:12.627Z,76.24
2019-05-18T20:53:45.626Z,76.30
2019-05-18T20:56:18.968Z,76.74
2019-05-18T20:58:51.757Z,77.13
2019-05-18T21:01:24.525Z,77.09
2019-05-18T21:03:57.439Z,77.42
2019-05-18T21:06:30.251Z,77.51
2019-05-18T21:09:04.647Z,77.70
2019-05-18T21:11:38.398Z,78.13
2019-05-18T21:14:11.231Z,78.00
2019-05-18T21:16:44.108Z,78.27
2019-05-18T21:19:17.319Z,77.77
2019-05-18T21:21:50.300Z,78.05
2019-05-18T21:24:22.946Z,78.00
2019-05-18T21:26:55.565Z,78.06
2019-05-18T21:29:28.287Z,78.17
2019-05-18T21:32:00.615Z,78.15
2019-05-18T21:34:33.595Z,77.79
2019-05-18T21:37:06.371Z,77.54
2019-05-18T21:39:39.141Z,77.44
2019-05-18T21:42:12.991Z,77.85
2019-05-18T21:44:45.695Z,78.24
2019-05-18T21:47:18.334Z,78.32
2019-05-18T21:49:50.921Z,78.43
2019-05-18T21:52:23.465Z,78.43
2019-05-18T21:54:56.105Z,78.46
2019-05-18T21:57:29.015Z,78.16
2019-05-18T22:00:02.241Z,78.21
2019-05-18T22:02:36.816Z,78.23
2019-05-18T22:05:09.680Z,78.41
2019-05-18T22:07:42.501Z,78.79
2019-05-18T22:10:25.453Z,78.90
2019-05-18T22:12:49.935Z,78.86
2019-05-18T22:15:22.684Z,79.05
2019-05-18T22:18:04.601Z,79.03
2019-05-18T22:20:43.528Z,78.94
2019-05-18T22:23:12.236Z,78.98
2019-05-18T22:25:44.915Z,78.85
2019-05-18T22:28:17.585Z,79.15
2019-05-18T22:30:50.225Z,79.26
2019-05-18T22:33:23.226Z,79.40
2019-05-18T22:35:55.900Z,79.32
2019-05-18T22:38:28.546Z,79.41
2019-05-18T22:41:01.380Z,79.38
2019-05-18T22:43:35.215Z,79.47
2019-05-18T22:46:08.180Z,79.55
2019-05-18T22:48:41.838Z,79.64
2019-05-18T22:51:14.763Z,79.67
2019-05-18T22:53:47.315Z,79.68
2019-05-18T22:56:20.073Z,79.67
2019-05-18T22:58:52.824Z,79.88
2019-05-18T23:01:25.665Z,80.06
2019-05-18T23:03:58.470Z,80.32
2019-05-18T23:06:31.236Z,80.47
2019-05-18T23:09:05.135Z,80.76
2019-05-18T23:11:37.928Z,80.78
2019-05-18T23:14:10.611Z,80.73
2019-05-18T23:16:43.250Z,80.96
2019-05-18T23:19:15.871Z,80.93
2019-05-18T23:21:48.759Z,80.98
2019-05-18T23:24:21.447Z,81.11
2019-05-18T23:26:54.391Z,81.58
2019-05-18T23:29:26.995Z,81.74
2019-05-18T23:31:59.855Z,81.91
2019-05-18T23:34:32.591Z,81.99
2019-05-18T23:37:05.245Z,82.24
2019-05-18T23:39:37.811Z,82.29
2019-05-18T23:42:10.597Z,82.31
2019-05-18T23:44:43.190Z,82.46
2019-05-18T23:47:16.060Z,82.40
2019-05-18T23:49:48.774Z,82.45
2019-05-18T23:52:21.495Z,82.82
2019-05-18T23:54:54.203Z,82.93
2019-05-18T23:57:26.966Z,82.75
2019-05-18T23:59:59.659Z,82.60
